sensor_id;sensor_type;location;lat;lon;timestamp;P1;durP1;ratioP1;P2;durP2;ratioP2
56419;SDS011;42323;52.170;7.538;2023-07-31T00:01:33;1.90;;;1.67;;
56419;SDS011;42323;52.170;7.538;2023-07-31T00:04:00;2.85;;;1.70;;
56419;SDS011;42323;52.170;7.538;2023-07-31T00:06:27;2.20;;;1.38;;
56419;SDS011;42323;52.170;7.538;2023-07-31T00:08:53;1.88;;;1.35;;
56419;SDS011;42323;52.170;7.538;2023-07-31T00:11:20;2.10;;;1.50;;
56419;SDS011;42323;52.170;7.538;2023-07-31T00:13:46;2.67;;;1.70;;
56419;SDS011;42323;52.170;7.538;2023-07-31T00:16:13;3.55;;;1.80;;
56419;SDS011;42323;52.170;7.538;2023-07-31T00:18:40;2.83;;;1.52;;
56419;SDS011;42323;52.170;7.538;2023-07-31T00:21:06;2.60;;;1.60;;
56419;SDS011;42323;52.170;7.538;2023-07-31T00:23:33;3.13;;;1.88;;
56419;SDS011;42323;52.170;7.538;2023-07-31T00:25:59;3.22;;;1.60;;
56419;SDS011;42323;52.170;7.538;2023-07-31T00:28:27;1.52;;;1.17;;
56419;SDS011;42323;52.170;7.538;2023-07-31T00:30:55;4.57;;;1.77;;
56419;SDS011;42323;52.170;7.538;2023-07-31T00:33:21;2.95;;;1.58;;
56419;SDS011;42323;52.170;7.538;2023-07-31T00:35:48;1.83;;;1.38;;
56419;SDS011;42323;52.170;7.538;2023-07-31T00:38:14;3.53;;;1.35;;
56419;SDS011;42323;52.170;7.538;2023-07-31T00:40:41;1.98;;;1.50;;
56419;SDS011;42323;52.170;7.538;2023-07-31T00:43:08;2.10;;;1.23;;
56419;SDS011;42323;52.170;7.538;2023-07-31T00:45:34;3.33;;;1.70;;
56419;SDS011;42323;52.170;7.538;2023-07-31T00:48:01;2.20;;;1.55;;
56419;SDS011;42323;52.170;7.538;2023-07-31T00:50:28;2.40;;;1.40;;
56419;SDS011;42323;52.170;7.538;2023-07-31T00:52:55;1.55;;;1.20;;
56419;SDS011;42323;52.170;7.538;2023-07-31T00:55:22;2.13;;;1.17;;
56419;SDS011;42323;52.170;7.538;2023-07-31T00:57:49;1.95;;;1.17;;
56419;SDS011;42323;52.170;7.538;2023-07-31T01:00:18;2.88;;;1.33;;
56419;SDS011;42323;52.170;7.538;2023-07-31T01:02:46;1.65;;;1.15;;
56419;SDS011;42323;52.170;7.538;2023-07-31T01:05:13;1.70;;;1.17;;
56419;SDS011;42323;52.170;7.538;2023-07-31T01:10:20;2.28;;;1.60;;
56419;SDS011;42323;52.170;7.538;2023-07-31T01:12:53;2.03;;;1.40;;
56419;SDS011;42323;52.170;7.538;2023-07-31T01:15:22;2.17;;;1.30;;
56419;SDS011;42323;52.170;7.538;2023-07-31T01:17:49;2.85;;;1.50;;
56419;SDS011;42323;52.170;7.538;2023-07-31T01:23:15;5.10;;;1.40;;
56419;SDS011;42323;52.170;7.538;2023-07-31T01:29:20;2.17;;;1.35;;
56419;SDS011;42323;52.170;7.538;2023-07-31T01:31:35;1.83;;;1.30;;
56419;SDS011;42323;52.170;7.538;2023-07-31T01:34:04;1.63;;;1.17;;
56419;SDS011;42323;52.170;7.538;2023-07-31T01:36:34;1.42;;;1.30;;
56419;SDS011;42323;52.170;7.538;2023-07-31T01:39:00;2.65;;;1.40;;
56419;SDS011;42323;52.170;7.538;2023-07-31T01:41:28;1.73;;;1.30;;
56419;SDS011;42323;52.170;7.538;2023-07-31T01:43:54;2.70;;;1.42;;
56419;SDS011;42323;52.170;7.538;2023-07-31T01:46:21;2.25;;;1.33;;
56419;SDS011;42323;52.170;7.538;2023-07-31T01:48:48;2.90;;;1.40;;
56419;SDS011;42323;52.170;7.538;2023-07-31T01:51:14;1.85;;;1.20;;
56419;SDS011;42323;52.170;7.538;2023-07-31T01:53:41;3.22;;;1.42;;
56419;SDS011;42323;52.170;7.538;2023-07-31T01:56:07;2.70;;;1.35;;
56419;SDS011;42323;52.170;7.538;2023-07-31T01:58:34;2.20;;;1.25;;
56419;SDS011;42323;52.170;7.538;2023-07-31T02:01:00;1.45;;;1.10;;
56419;SDS011;42323;52.170;7.538;2023-07-31T02:03:27;1.20;;;0.90;;
56419;SDS011;42323;52.170;7.538;2023-07-31T02:05:54;1.05;;;0.80;;
56419;SDS011;42323;52.170;7.538;2023-07-31T02:08:21;2.70;;;0.97;;
56419;SDS011;42323;52.170;7.538;2023-07-31T02:10:48;2.25;;;1.10;;
56419;SDS011;42323;52.170;7.538;2023-07-31T02:13:14;2.83;;;1.33;;
56419;SDS011;42323;52.170;7.538;2023-07-31T02:15:41;1.63;;;0.80;;
56419;SDS011;42323;52.170;7.538;2023-07-31T02:18:07;0.82;;;0.80;;
56419;SDS011;42323;52.170;7.538;2023-07-31T02:20:34;1.25;;;0.80;;
56419;SDS011;42323;52.170;7.538;2023-07-31T02:23:01;1.02;;;0.80;;
56419;SDS011;42323;52.170;7.538;2023-07-31T02:25:28;1.33;;;0.77;;
56419;SDS011;42323;52.170;7.538;2023-07-31T02:27:55;1.33;;;0.90;;
56419;SDS011;42323;52.170;7.538;2023-07-31T02:30:22;1.02;;;0.77;;
56419;SDS011;42323;52.170;7.538;2023-07-31T02:32:48;0.98;;;0.77;;
56419;SDS011;42323;52.170;7.538;2023-07-31T02:35:15;0.70;;;0.60;;
56419;SDS011;42323;52.170;7.538;2023-07-31T02:37:42;1.75;;;0.85;;
56419;SDS011;42323;52.170;7.538;2023-07-31T02:40:09;1.45;;;1.02;;
56419;SDS011;42323;52.170;7.538;2023-07-31T02:42:36;1.88;;;1.00;;
56419;SDS011;42323;52.170;7.538;2023-07-31T02:45:02;3.70;;;1.52;;
56419;SDS011;42323;52.170;7.538;2023-07-31T02:47:29;3.40;;;1.60;;
56419;SDS011;42323;52.170;7.538;2023-07-31T02:49:56;2.67;;;1.80;;
56419;SDS011;42323;52.170;7.538;2023-07-31T02:52:22;2.83;;;1.58;;
56419;SDS011;42323;52.170;7.538;2023-07-31T02:54:49;5.15;;;2.70;;
56419;SDS011;42323;52.170;7.538;2023-07-31T02:57:15;4.47;;;2.80;;
56419;SDS011;42323;52.170;7.538;2023-07-31T02:59:42;5.45;;;2.83;;
56419;SDS011;42323;52.170;7.538;2023-07-31T03:02:09;10.20;;;4.28;;
56419;SDS011;42323;52.170;7.538;2023-07-31T03:04:35;8.80;;;3.60;;
56419;SDS011;42323;52.170;7.538;2023-07-31T03:07:02;12.95;;;4.53;;
56419;SDS011;42323;52.170;7.538;2023-07-31T03:09:29;14.77;;;5.15;;
56419;SDS011;42323;52.170;7.538;2023-07-31T03:11:55;12.15;;;5.25;;
56419;SDS011;42323;52.170;7.538;2023-07-31T03:14:22;12.32;;;5.63;;
56419;SDS011;42323;52.170;7.538;2023-07-31T03:16:48;15.30;;;5.57;;
56419;SDS011;42323;52.170;7.538;2023-07-31T03:19:15;13.45;;;5.82;;
56419;SDS011;42323;52.170;7.538;2023-07-31T03:21:43;18.00;;;6.60;;
56419;SDS011;42323;52.170;7.538;2023-07-31T03:24:09;22.05;;;7.05;;
56419;SDS011;42323;52.170;7.538;2023-07-31T03:26:38;18.75;;;6.45;;
56419;SDS011;42323;52.170;7.538;2023-07-31T03:29:07;17.30;;;6.75;;
56419;SDS011;42323;52.170;7.538;2023-07-31T03:31:34;16.80;;;6.95;;
56419;SDS011;42323;52.170;7.538;2023-07-31T03:34:01;19.15;;;7.07;;
56419;SDS011;42323;52.170;7.538;2023-07-31T03:36:28;18.80;;;7.03;;
56419;SDS011;42323;52.170;7.538;2023-07-31T03:38:54;17.85;;;6.20;;
56419;SDS011;42323;52.170;7.538;2023-07-31T03:41:21;17.63;;;6.65;;
56419;SDS011;42323;52.170;7.538;2023-07-31T03:43:49;15.25;;;6.53;;
56419;SDS011;42323;52.170;7.538;2023-07-31T03:46:22;14.00;;;5.53;;
56419;SDS011;42323;52.170;7.538;2023-07-31T03:48:50;18.75;;;5.32;;
56419;SDS011;42323;52.170;7.538;2023-07-31T03:51:17;16.13;;;6.65;;
56419;SDS011;42323;52.170;7.538;2023-07-31T03:53:44;12.48;;;5.10;;
56419;SDS011;42323;52.170;7.538;2023-07-31T03:56:10;12.82;;;6.18;;
56419;SDS011;42323;52.170;7.538;2023-07-31T03:58:37;15.90;;;5.70;;
56419;SDS011;42323;52.170;7.538;2023-07-31T04:01:03;12.38;;;5.15;;
56419;SDS011;42323;52.170;7.538;2023-07-31T04:03:30;11.32;;;4.88;;
56419;SDS011;42323;52.170;7.538;2023-07-31T04:05:57;17.83;;;5.35;;
56419;SDS011;42323;52.170;7.538;2023-07-31T04:08:23;16.75;;;5.75;;
56419;SDS011;42323;52.170;7.538;2023-07-31T04:10:50;14.48;;;4.57;;
56419;SDS011;42323;52.170;7.538;2023-07-31T04:13:17;14.43;;;4.93;;
56419;SDS011;42323;52.170;7.538;2023-07-31T04:15:47;17.00;;;5.82;;
56419;SDS011;42323;52.170;7.538;2023-07-31T04:18:15;12.95;;;5.43;;
56419;SDS011;42323;52.170;7.538;2023-07-31T04:20:42;12.57;;;5.20;;
56419;SDS011;42323;52.170;7.538;2023-07-31T04:23:08;13.57;;;5.25;;
56419;SDS011;42323;52.170;7.538;2023-07-31T04:25:35;15.15;;;6.20;;
56419;SDS011;42323;52.170;7.538;2023-07-31T04:28:01;14.68;;;5.38;;
56419;SDS011;42323;52.170;7.538;2023-07-31T04:30:28;12.98;;;5.65;;
56419;SDS011;42323;52.170;7.538;2023-07-31T04:32:55;17.13;;;5.40;;
56419;SDS011;42323;52.170;7.538;2023-07-31T04:35:21;13.23;;;4.60;;
56419;SDS011;42323;52.170;7.538;2023-07-31T04:37:48;13.05;;;5.13;;
56419;SDS011;42323;52.170;7.538;2023-07-31T04:40:15;18.02;;;5.53;;
56419;SDS011;42323;52.170;7.538;2023-07-31T04:42:42;11.32;;;4.88;;
56419;SDS011;42323;52.170;7.538;2023-07-31T04:45:09;11.65;;;4.95;;
56419;SDS011;42323;52.170;7.538;2023-07-31T04:47:36;16.27;;;4.57;;
56419;SDS011;42323;52.170;7.538;2023-07-31T04:50:02;14.40;;;5.43;;
56419;SDS011;42323;52.170;7.538;2023-07-31T04:52:29;19.90;;;6.15;;
56419;SDS011;42323;52.170;7.538;2023-07-31T04:54:55;15.02;;;5.65;;
56419;SDS011;42323;52.170;7.538;2023-07-31T04:57:22;11.38;;;4.60;;
56419;SDS011;42323;52.170;7.538;2023-07-31T04:59:49;17.85;;;4.63;;
56419;SDS011;42323;52.170;7.538;2023-07-31T05:02:16;15.13;;;5.03;;
56419;SDS011;42323;52.170;7.538;2023-07-31T05:04:43;13.32;;;4.82;;
56419;SDS011;42323;52.170;7.538;2023-07-31T05:07:10;13.82;;;5.03;;
56419;SDS011;42323;52.170;7.538;2023-07-31T05:09:36;12.18;;;5.20;;
56419;SDS011;42323;52.170;7.538;2023-07-31T05:12:04;15.07;;;4.70;;
56419;SDS011;42323;52.170;7.538;2023-07-31T05:14:32;11.60;;;4.50;;
56419;SDS011;42323;52.170;7.538;2023-07-31T05:16:58;10.70;;;4.53;;
56419;SDS011;42323;52.170;7.538;2023-07-31T05:19:25;12.57;;;4.50;;
56419;SDS011;42323;52.170;7.538;2023-07-31T05:21:51;10.63;;;4.78;;
56419;SDS011;42323;52.170;7.538;2023-07-31T05:24:18;15.25;;;5.07;;
56419;SDS011;42323;52.170;7.538;2023-07-31T05:26:44;14.00;;;4.22;;
56419;SDS011;42323;52.170;7.538;2023-07-31T05:29:11;10.57;;;3.83;;
56419;SDS011;42323;52.170;7.538;2023-07-31T05:31:38;12.00;;;4.50;;
56419;SDS011;42323;52.170;7.538;2023-07-31T05:34:04;14.80;;;4.95;;
56419;SDS011;42323;52.170;7.538;2023-07-31T05:36:31;16.95;;;4.40;;
56419;SDS011;42323;52.170;7.538;2023-07-31T05:38:58;12.18;;;4.78;;
56419;SDS011;42323;52.170;7.538;2023-07-31T05:41:24;14.02;;;5.00;;
56419;SDS011;42323;52.170;7.538;2023-07-31T05:43:51;10.05;;;3.22;;
56419;SDS011;42323;52.170;7.538;2023-07-31T05:46:17;15.38;;;4.25;;
56419;SDS011;42323;52.170;7.538;2023-07-31T05:48:44;13.40;;;4.15;;
56419;SDS011;42323;52.170;7.538;2023-07-31T05:51:11;10.80;;;3.88;;
56419;SDS011;42323;52.170;7.538;2023-07-31T05:53:38;11.63;;;4.13;;
56419;SDS011;42323;52.170;7.538;2023-07-31T05:56:07;14.82;;;4.05;;
56419;SDS011;42323;52.170;7.538;2023-07-31T05:58:33;9.25;;;3.90;;
56419;SDS011;42323;52.170;7.538;2023-07-31T06:01:00;11.80;;;3.70;;
56419;SDS011;42323;52.170;7.538;2023-07-31T06:03:27;10.77;;;3.53;;
56419;SDS011;42323;52.170;7.538;2023-07-31T06:05:53;12.05;;;4.07;;
56419;SDS011;42323;52.170;7.538;2023-07-31T06:08:20;11.50;;;4.18;;
56419;SDS011;42323;52.170;7.538;2023-07-31T06:10:46;12.70;;;4.15;;
56419;SDS011;42323;52.170;7.538;2023-07-31T06:13:15;13.45;;;4.65;;
56419;SDS011;42323;52.170;7.538;2023-07-31T06:15:41;9.57;;;3.88;;
56419;SDS011;42323;52.170;7.538;2023-07-31T06:18:08;16.30;;;3.97;;
56419;SDS011;42323;52.170;7.538;2023-07-31T06:20:35;10.68;;;3.45;;
56419;SDS011;42323;52.170;7.538;2023-07-31T06:23:01;15.35;;;4.07;;
56419;SDS011;42323;52.170;7.538;2023-07-31T06:25:30;9.32;;;4.18;;
56419;SDS011;42323;52.170;7.538;2023-07-31T06:27:56;11.23;;;4.25;;
56419;SDS011;42323;52.170;7.538;2023-07-31T06:30:23;19.33;;;4.63;;
56419;SDS011;42323;52.170;7.538;2023-07-31T06:32:50;11.88;;;3.90;;
56419;SDS011;42323;52.170;7.538;2023-07-31T06:35:16;9.35;;;3.20;;
56419;SDS011;42323;52.170;7.538;2023-07-31T06:37:43;8.88;;;3.67;;
56419;SDS011;42323;52.170;7.538;2023-07-31T06:40:10;10.88;;;4.22;;
56419;SDS011;42323;52.170;7.538;2023-07-31T06:42:37;11.82;;;3.97;;
56419;SDS011;42323;52.170;7.538;2023-07-31T06:45:04;10.80;;;4.40;;
56419;SDS011;42323;52.170;7.538;2023-07-31T06:47:31;7.88;;;3.75;;
56419;SDS011;42323;52.170;7.538;2023-07-31T06:49:58;15.73;;;4.03;;
56419;SDS011;42323;52.170;7.538;2023-07-31T06:52:25;7.75;;;3.75;;
56419;SDS011;42323;52.170;7.538;2023-07-31T06:57:49;9.55;;;3.60;;
56419;SDS011;42323;52.170;7.538;2023-07-31T07:00:17;9.85;;;3.85;;
56419;SDS011;42323;52.170;7.538;2023-07-31T07:02:44;11.05;;;3.67;;
56419;SDS011;42323;52.170;7.538;2023-07-31T07:05:14;12.25;;;4.32;;
56419;SDS011;42323;52.170;7.538;2023-07-31T07:07:41;10.23;;;3.65;;
56419;SDS011;42323;52.170;7.538;2023-07-31T07:10:10;9.95;;;3.47;;
56419;SDS011;42323;52.170;7.538;2023-07-31T07:12:36;8.63;;;3.88;;
56419;SDS011;42323;52.170;7.538;2023-07-31T07:15:03;10.73;;;3.92;;
56419;SDS011;42323;52.170;7.538;2023-07-31T07:17:30;10.90;;;3.78;;
56419;SDS011;42323;52.170;7.538;2023-07-31T07:20:00;11.18;;;4.38;;
56419;SDS011;42323;52.170;7.538;2023-07-31T07:22:27;10.68;;;3.63;;
56419;SDS011;42323;52.170;7.538;2023-07-31T07:24:54;9.07;;;3.67;;
56419;SDS011;42323;52.170;7.538;2023-07-31T07:27:21;8.60;;;3.92;;
56419;SDS011;42323;52.170;7.538;2023-07-31T07:29:50;7.88;;;3.70;;
56419;SDS011;42323;52.170;7.538;2023-07-31T07:32:17;8.48;;;3.45;;
56419;SDS011;42323;52.170;7.538;2023-07-31T07:34:44;9.07;;;3.42;;
56419;SDS011;42323;52.170;7.538;2023-07-31T07:37:11;9.60;;;3.38;;
56419;SDS011;42323;52.170;7.538;2023-07-31T07:39:38;11.38;;;3.17;;
56419;SDS011;42323;52.170;7.538;2023-07-31T07:42:04;14.02;;;3.05;;
56419;SDS011;42323;52.170;7.538;2023-07-31T07:44:31;7.45;;;3.20;;
56419;SDS011;42323;52.170;7.538;2023-07-31T07:46:58;8.68;;;3.05;;
56419;SDS011;42323;52.170;7.538;2023-07-31T07:49:25;6.15;;;2.88;;
56419;SDS011;42323;52.170;7.538;2023-07-31T07:51:51;4.22;;;2.42;;
56419;SDS011;42323;52.170;7.538;2023-07-31T07:54:18;8.10;;;2.53;;
56419;SDS011;42323;52.170;7.538;2023-07-31T07:56:45;5.32;;;2.70;;
56419;SDS011;42323;52.170;7.538;2023-07-31T07:59:12;4.13;;;2.50;;
56419;SDS011;42323;52.170;7.538;2023-07-31T08:01:38;5.50;;;2.80;;
56419;SDS011;42323;52.170;7.538;2023-07-31T08:04:05;4.20;;;2.10;;
56419;SDS011;42323;52.170;7.538;2023-07-31T08:06:32;5.50;;;2.25;;
56419;SDS011;42323;52.170;7.538;2023-07-31T08:08:58;4.78;;;2.28;;
56419;SDS011;42323;52.170;7.538;2023-07-31T08:11:25;4.72;;;2.03;;
56419;SDS011;42323;52.170;7.538;2023-07-31T08:13:52;2.53;;;1.67;;
56419;SDS011;42323;52.170;7.538;2023-07-31T08:16:18;2.97;;;1.88;;
56419;SDS011;42323;52.170;7.538;2023-07-31T08:18:45;3.13;;;1.70;;
56419;SDS011;42323;52.170;7.538;2023-07-31T08:21:12;3.80;;;2.10;;
56419;SDS011;42323;52.170;7.538;2023-07-31T08:23:38;3.78;;;1.90;;
56419;SDS011;42323;52.170;7.538;2023-07-31T08:26:05;2.72;;;1.52;;
56419;SDS011;42323;52.170;7.538;2023-07-31T08:28:32;3.22;;;1.90;;
56419;SDS011;42323;52.170;7.538;2023-07-31T08:30:59;2.13;;;1.50;;
56419;SDS011;42323;52.170;7.538;2023-07-31T08:33:25;4.30;;;1.55;;
56419;SDS011;42323;52.170;7.538;2023-07-31T08:35:52;2.90;;;1.70;;
56419;SDS011;42323;52.170;7.538;2023-07-31T08:38:19;1.70;;;1.27;;
56419;SDS011;42323;52.170;7.538;2023-07-31T08:40:46;2.38;;;1.40;;
56419;SDS011;42323;52.170;7.538;2023-07-31T08:43:12;2.90;;;1.27;;
56419;SDS011;42323;52.170;7.538;2023-07-31T08:45:39;2.38;;;1.10;;
56419;SDS011;42323;52.170;7.538;2023-07-31T08:48:11;3.17;;;1.50;;
56419;SDS011;42323;52.170;7.538;2023-07-31T08:50:38;1.85;;;1.35;;
56419;SDS011;42323;52.170;7.538;2023-07-31T08:53:05;1.67;;;1.02;;
56419;SDS011;42323;52.170;7.538;2023-07-31T08:55:32;2.33;;;1.40;;
56419;SDS011;42323;52.170;7.538;2023-07-31T08:57:59;2.13;;;1.20;;
56419;SDS011;42323;52.170;7.538;2023-07-31T09:00:27;2.50;;;1.30;;
56419;SDS011;42323;52.170;7.538;2023-07-31T09:03:06;3.40;;;1.20;;
56419;SDS011;42323;52.170;7.538;2023-07-31T09:05:36;2.78;;;1.20;;
56419;SDS011;42323;52.170;7.538;2023-07-31T09:08:06;2.08;;;1.17;;
56419;SDS011;42323;52.170;7.538;2023-07-31T09:10:35;1.65;;;1.17;;
56419;SDS011;42323;52.170;7.538;2023-07-31T09:13:01;1.92;;;1.42;;
56419;SDS011;42323;52.170;7.538;2023-07-31T09:15:29;1.63;;;1.25;;
56419;SDS011;42323;52.170;7.538;2023-07-31T09:18:04;1.80;;;1.05;;
56419;SDS011;42323;52.170;7.538;2023-07-31T09:20:31;3.17;;;1.35;;
56419;SDS011;42323;52.170;7.538;2023-07-31T09:23:05;2.75;;;1.33;;
56419;SDS011;42323;52.170;7.538;2023-07-31T09:25:37;1.92;;;1.20;;
56419;SDS011;42323;52.170;7.538;2023-07-31T09:28:06;2.83;;;1.70;;
56419;SDS011;42323;52.170;7.538;2023-07-31T09:30:49;1.75;;;1.13;;
56419;SDS011;42323;52.170;7.538;2023-07-31T09:33:17;3.15;;;1.50;;
56419;SDS011;42323;52.170;7.538;2023-07-31T09:35:45;1.88;;;1.20;;
56419;SDS011;42323;52.170;7.538;2023-07-31T09:38:14;2.63;;;1.20;;
56419;SDS011;42323;52.170;7.538;2023-07-31T09:40:42;2.33;;;1.60;;
56419;SDS011;42323;52.170;7.538;2023-07-31T09:43:11;1.88;;;1.38;;
56419;SDS011;42323;52.170;7.538;2023-07-31T09:45:43;1.77;;;1.02;;
56419;SDS011;42323;52.170;7.538;2023-07-31T09:48:11;2.00;;;1.30;;
56419;SDS011;42323;52.170;7.538;2023-07-31T09:50:40;1.88;;;1.25;;
56419;SDS011;42323;52.170;7.538;2023-07-31T09:53:08;3.50;;;1.50;;
56419;SDS011;42323;52.170;7.538;2023-07-31T09:55:35;1.98;;;1.13;;
56419;SDS011;42323;52.170;7.538;2023-07-31T09:58:04;1.98;;;1.23;;
56419;SDS011;42323;52.170;7.538;2023-07-31T10:00:32;1.77;;;1.20;;
56419;SDS011;42323;52.170;7.538;2023-07-31T10:02:59;1.65;;;1.08;;
56419;SDS011;42323;52.170;7.538;2023-07-31T10:05:31;3.03;;;1.70;;
56419;SDS011;42323;52.170;7.538;2023-07-31T10:08:13;2.45;;;1.20;;
56419;SDS011;42323;52.170;7.538;2023-07-31T10:10:42;2.72;;;1.27;;
56419;SDS011;42323;52.170;7.538;2023-07-31T10:13:10;2.30;;;1.40;;
56419;SDS011;42323;52.170;7.538;2023-07-31T10:15:39;3.00;;;1.60;;
56419;SDS011;42323;52.170;7.538;2023-07-31T10:18:07;2.70;;;1.30;;
56419;SDS011;42323;52.170;7.538;2023-07-31T10:20:34;1.88;;;1.30;;
56419;SDS011;42323;52.170;7.538;2023-07-31T10:23:02;2.45;;;1.42;;
56419;SDS011;42323;52.170;7.538;2023-07-31T10:25:30;1.77;;;1.52;;
56419;SDS011;42323;52.170;7.538;2023-07-31T10:27:58;3.03;;;1.30;;
56419;SDS011;42323;52.170;7.538;2023-07-31T10:30:26;2.03;;;1.40;;
56419;SDS011;42323;52.170;7.538;2023-07-31T10:32:55;3.60;;;1.60;;
56419;SDS011;42323;52.170;7.538;2023-07-31T10:35:24;2.72;;;1.67;;
56419;SDS011;42323;52.170;7.538;2023-07-31T10:37:52;3.00;;;1.30;;
56419;SDS011;42323;52.170;7.538;2023-07-31T10:40:19;2.35;;;1.13;;
56419;SDS011;42323;52.170;7.538;2023-07-31T10:42:56;2.97;;;1.40;;
56419;SDS011;42323;52.170;7.538;2023-07-31T10:45:36;3.17;;;1.35;;
56419;SDS011;42323;52.170;7.538;2023-07-31T10:48:14;1.48;;;1.17;;
56419;SDS011;42323;52.170;7.538;2023-07-31T10:50:46;1.67;;;1.10;;
56419;SDS011;42323;52.170;7.538;2023-07-31T10:53:22;2.00;;;1.40;;
56419;SDS011;42323;52.170;7.538;2023-07-31T10:55:58;4.22;;;1.45;;
56419;SDS011;42323;52.170;7.538;2023-07-31T10:58:25;2.53;;;1.30;;
56419;SDS011;42323;52.170;7.538;2023-07-31T11:00:55;2.55;;;1.23;;
56419;SDS011;42323;52.170;7.538;2023-07-31T11:03:27;2.95;;;1.30;;
56419;SDS011;42323;52.170;7.538;2023-07-31T11:06:08;1.95;;;1.30;;
56419;SDS011;42323;52.170;7.538;2023-07-31T11:08:44;3.65;;;1.52;;
56419;SDS011;42323;52.170;7.538;2023-07-31T11:11:13;2.65;;;1.27;;
56419;SDS011;42323;52.170;7.538;2023-07-31T11:13:50;2.13;;;1.40;;
56419;SDS011;42323;52.170;7.538;2023-07-31T11:16:19;2.72;;;1.40;;
56419;SDS011;42323;52.170;7.538;2023-07-31T11:18:51;1.80;;;1.30;;
56419;SDS011;42323;52.170;7.538;2023-07-31T11:21:20;3.08;;;1.23;;
56419;SDS011;42323;52.170;7.538;2023-07-31T11:23:49;1.30;;;1.00;;
56419;SDS011;42323;52.170;7.538;2023-07-31T11:26:20;2.03;;;1.50;;
56419;SDS011;42323;52.170;7.538;2023-07-31T11:28:47;1.90;;;1.25;;
56419;SDS011;42323;52.170;7.538;2023-07-31T11:31:15;2.20;;;1.40;;
56419;SDS011;42323;52.170;7.538;2023-07-31T11:33:41;2.40;;;1.60;;
56419;SDS011;42323;52.170;7.538;2023-07-31T11:36:19;3.30;;;1.60;;
56419;SDS011;42323;52.170;7.538;2023-07-31T11:38:46;2.75;;;1.77;;
56419;SDS011;42323;52.170;7.538;2023-07-31T11:41:14;2.15;;;1.60;;
56419;SDS011;42323;52.170;7.538;2023-07-31T11:43:45;1.85;;;1.35;;
56419;SDS011;42323;52.170;7.538;2023-07-31T11:46:13;1.83;;;1.30;;
56419;SDS011;42323;52.170;7.538;2023-07-31T11:48:41;1.95;;;1.40;;
56419;SDS011;42323;52.170;7.538;2023-07-31T11:51:08;2.08;;;1.67;;
56419;SDS011;42323;52.170;7.538;2023-07-31T11:56:22;2.28;;;1.77;;
56419;SDS011;42323;52.170;7.538;2023-07-31T11:58:53;2.28;;;1.55;;
56419;SDS011;42323;52.170;7.538;2023-07-31T12:04:23;2.83;;;1.75;;
56419;SDS011;42323;52.170;7.538;2023-07-31T12:06:53;2.95;;;1.60;;
56419;SDS011;42323;52.170;7.538;2023-07-31T12:09:23;3.15;;;2.05;;
56419;SDS011;42323;52.170;7.538;2023-07-31T12:11:52;2.47;;;1.77;;
56419;SDS011;42323;52.170;7.538;2023-07-31T12:14:26;3.70;;;1.88;;
56419;SDS011;42323;52.170;7.538;2023-07-31T12:17:00;4.13;;;2.50;;
56419;SDS011;42323;52.170;7.538;2023-07-31T12:19:30;7.65;;;2.50;;
56419;SDS011;42323;52.170;7.538;2023-07-31T12:22:00;5.78;;;2.88;;
56419;SDS011;42323;52.170;7.538;2023-07-31T12:24:27;5.15;;;3.22;;
56419;SDS011;42323;52.170;7.538;2023-07-31T12:26:59;3.83;;;2.70;;
56419;SDS011;42323;52.170;7.538;2023-07-31T12:29:37;4.15;;;2.10;;
56419;SDS011;42323;52.170;7.538;2023-07-31T12:34:46;3.78;;;2.30;;
56419;SDS011;42323;52.170;7.538;2023-07-31T12:37:12;4.22;;;2.83;;
56419;SDS011;42323;52.170;7.538;2023-07-31T12:39:39;5.85;;;2.42;;
56419;SDS011;42323;52.170;7.538;2023-07-31T12:42:06;5.80;;;2.80;;
56419;SDS011;42323;52.170;7.538;2023-07-31T12:44:33;6.78;;;2.70;;
56419;SDS011;42323;52.170;7.538;2023-07-31T12:46:59;5.85;;;2.95;;
56419;SDS011;42323;52.170;7.538;2023-07-31T12:49:26;4.85;;;3.20;;
56419;SDS011;42323;52.170;7.538;2023-07-31T12:51:53;4.55;;;2.88;;
56419;SDS011;42323;52.170;7.538;2023-07-31T12:54:20;4.95;;;2.92;;
56419;SDS011;42323;52.170;7.538;2023-07-31T12:56:46;7.95;;;3.03;;
56419;SDS011;42323;52.170;7.538;2023-07-31T12:59:13;5.30;;;3.10;;
56419;SDS011;42323;52.170;7.538;2023-07-31T13:01:40;3.35;;;2.78;;
56419;SDS011;42323;52.170;7.538;2023-07-31T13:04:07;4.43;;;2.70;;
56419;SDS011;42323;52.170;7.538;2023-07-31T13:06:34;4.05;;;2.65;;
56419;SDS011;42323;52.170;7.538;2023-07-31T13:09:01;3.45;;;2.53;;
56419;SDS011;42323;52.170;7.538;2023-07-31T13:11:28;4.13;;;2.92;;
56419;SDS011;42323;52.170;7.538;2023-07-31T13:13:54;5.57;;;2.75;;
56419;SDS011;42323;52.170;7.538;2023-07-31T13:16:21;3.75;;;2.60;;
56419;SDS011;42323;52.170;7.538;2023-07-31T13:18:47;4.70;;;3.05;;
56419;SDS011;42323;52.170;7.538;2023-07-31T13:21:14;4.25;;;2.75;;
56419;SDS011;42323;52.170;7.538;2023-07-31T13:23:41;5.03;;;3.65;;
56419;SDS011;42323;52.170;7.538;2023-07-31T13:26:07;3.70;;;2.70;;
56419;SDS011;42323;52.170;7.538;2023-07-31T13:28:34;4.50;;;2.63;;
56419;SDS011;42323;52.170;7.538;2023-07-31T13:31:00;7.03;;;3.10;;
56419;SDS011;42323;52.170;7.538;2023-07-31T13:33:27;5.15;;;2.85;;
56419;SDS011;42323;52.170;7.538;2023-07-31T13:36:02;3.92;;;2.80;;
56419;SDS011;42323;52.170;7.538;2023-07-31T13:38:29;5.75;;;3.15;;
56419;SDS011;42323;52.170;7.538;2023-07-31T13:40:55;5.05;;;3.53;;
56419;SDS011;42323;52.170;7.538;2023-07-31T13:43:22;5.85;;;3.42;;
56419;SDS011;42323;52.170;7.538;2023-07-31T13:45:49;5.45;;;3.03;;
56419;SDS011;42323;52.170;7.538;2023-07-31T13:48:16;4.57;;;2.90;;
56419;SDS011;42323;52.170;7.538;2023-07-31T13:50:42;5.50;;;3.30;;
56419;SDS011;42323;52.170;7.538;2023-07-31T13:53:09;4.50;;;2.75;;
56419;SDS011;42323;52.170;7.538;2023-07-31T13:55:35;5.75;;;3.22;;
56419;SDS011;42323;52.170;7.538;2023-07-31T13:58:02;4.07;;;2.70;;
56419;SDS011;42323;52.170;7.538;2023-07-31T14:00:28;4.20;;;2.67;;
56419;SDS011;42323;52.170;7.538;2023-07-31T14:02:55;5.47;;;2.95;;
56419;SDS011;42323;52.170;7.538;2023-07-31T14:05:22;4.15;;;2.35;;
56419;SDS011;42323;52.170;7.538;2023-07-31T14:07:49;3.15;;;2.25;;
56419;SDS011;42323;52.170;7.538;2023-07-31T14:10:15;6.20;;;2.50;;
56419;SDS011;42323;52.170;7.538;2023-07-31T14:12:42;3.28;;;2.22;;
56419;SDS011;42323;52.170;7.538;2023-07-31T14:15:09;3.83;;;2.30;;
56419;SDS011;42323;52.170;7.538;2023-07-31T14:17:39;5.35;;;2.30;;
56419;SDS011;42323;52.170;7.538;2023-07-31T14:20:05;4.85;;;2.40;;
56419;SDS011;42323;52.170;7.538;2023-07-31T14:22:33;4.10;;;2.60;;
56419;SDS011;42323;52.170;7.538;2023-07-31T14:25:01;4.50;;;2.70;;
56419;SDS011;42323;52.170;7.538;2023-07-31T14:27:28;3.67;;;2.15;;
56419;SDS011;42323;52.170;7.538;2023-07-31T14:29:54;2.83;;;2.00;;
56419;SDS011;42323;52.170;7.538;2023-07-31T14:32:21;4.25;;;2.00;;
56419;SDS011;42323;52.170;7.538;2023-07-31T14:34:49;4.18;;;2.00;;
56419;SDS011;42323;52.170;7.538;2023-07-31T14:37:16;2.55;;;1.77;;
56419;SDS011;42323;52.170;7.538;2023-07-31T14:39:42;2.65;;;2.08;;
56419;SDS011;42323;52.170;7.538;2023-07-31T14:42:12;3.58;;;2.10;;
56419;SDS011;42323;52.170;7.538;2023-07-31T14:44:38;4.10;;;1.90;;
56419;SDS011;42323;52.170;7.538;2023-07-31T14:47:05;4.90;;;1.90;;
56419;SDS011;42323;52.170;7.538;2023-07-31T14:49:32;3.10;;;1.65;;
56419;SDS011;42323;52.170;7.538;2023-07-31T14:51:58;3.03;;;1.80;;
56419;SDS011;42323;52.170;7.538;2023-07-31T14:54:25;3.55;;;1.90;;
56419;SDS011;42323;52.170;7.538;2023-07-31T14:56:51;5.05;;;2.03;;
56419;SDS011;42323;52.170;7.538;2023-07-31T14:59:18;2.95;;;1.90;;
56419;SDS011;42323;52.170;7.538;2023-07-31T15:01:45;2.90;;;1.80;;
56419;SDS011;42323;52.170;7.538;2023-07-31T15:04:12;3.85;;;1.95;;
56419;SDS011;42323;52.170;7.538;2023-07-31T15:06:38;3.63;;;1.92;;